createdAt,value
2022-10-09T13:19:32.027Z,101496.31
2022-10-09T13:22:07.995Z,101498.58
2022-10-09T13:24:36.462Z,101521.11
2022-10-09T13:27:05.578Z,101507.89
2022-10-09T13:29:34.172Z,101502.85
2022-10-09T13:32:03.567Z,101515.84
2022-10-09T13:34:32.065Z,101528.67
2022-10-09T13:37:00.607Z,101521.96
2022-10-09T13:39:30.218Z,101534.14
2022-10-09T13:41:59.885Z,101517.23
2022-10-09T13:44:29.323Z,101521.55
2022-10-09T13:46:57.853Z,101542.88
2022-10-09T13:49:29.286Z,101544.79
2022-10-09T13:51:57.869Z,101542.46
2022-10-09T13:54:26.650Z,101551.77
2022-10-09T13:56:55.615Z,101545.39
2022-10-09T13:59:24.831Z,101544.61
2022-10-09T14:01:54.582Z,101558.63
2022-10-09T14:04:23.599Z,101552.63
2022-10-09T14:06:53.576Z,101551.60
2022-10-09T14:09:23.312Z,101543.98
2022-10-09T14:11:51.994Z,101558.61
2022-10-09T14:14:23.100Z,101553.00
2022-10-09T14:16:51.925Z,101553.02
2022-10-09T14:19:24.920Z,101554.14
2022-10-09T14:21:58.582Z,101553.38
2022-10-09T14:24:33.279Z,101553.34
2022-10-09T14:27:08.604Z,101552.81
2022-10-09T14:29:40.299Z,101553.56
2022-10-09T14:32:08.962Z,101561.10
2022-10-09T14:34:39.472Z,101556.66
2022-10-09T14:37:29.672Z,101556.27
2022-10-09T14:40:02.526Z,101563.13
2022-10-09T14:42:31.173Z,101567.46
2022-10-09T14:45:02.487Z,101568.70
2022-10-09T14:47:31.169Z,101571.27
2022-10-09T14:50:01.441Z,101566.13
2022-10-09T14:52:30.812Z,101571.29
2022-10-09T14:54:59.450Z,101576.00
2022-10-09T14:57:35.844Z,101577.89
2022-10-09T15:00:08.872Z,101581.80
2022-10-09T15:02:38.437Z,101585.70
2022-10-09T15:05:07.490Z,101584.00
2022-10-09T15:07:36.369Z,101589.82
2022-10-09T15:10:05.691Z,101583.91
2022-10-09T15:12:43.226Z,101590.05
2022-10-09T15:15:11.735Z,101593.58
2022-10-09T15:17:40.790Z,101592.50
2022-10-09T15:20:09.853Z,101597.05
2022-10-09T15:22:38.799Z,101591.60
2022-10-09T15:25:08.498Z,101598.59
2022-10-09T15:27:36.983Z,101602.79
2022-10-09T15:30:12.178Z,101605.08
2022-10-09T15:32:44.706Z,101605.27
2022-10-09T15:35:19.161Z,101615.52
2022-10-09T15:37:55.767Z,101625.06
2022-10-09T15:40:25.124Z,101628.36
2022-10-09T15:42:54.049Z,101631.52
2022-10-09T15:45:22.889Z,101639.25
2022-10-09T15:48:00.183Z,101646.59
2022-10-09T15:50:28.804Z,101647.08
2022-10-09T15:53:11.838Z,101645.56
2022-10-09T15:55:53.051Z,101654.96
2022-10-09T15:58:21.812Z,101651.88
2022-10-09T16:00:51.528Z,101656.61
2022-10-09T16:03:21.310Z,101664.20
2022-10-09T16:05:52.980Z,101661.59
2022-10-09T16:08:31.615Z,101669.05
2022-10-09T16:11:12.571Z,101677.27
2022-10-09T16:13:48.226Z,101678.48
2022-10-09T16:16:28.630Z,101680.83
2022-10-09T16:18:58.481Z,101688.66
2022-10-09T16:21:29.920Z,101692.13
2022-10-09T16:24:02.215Z,101693.98
2022-10-09T16:26:32.659Z,101695.90
2022-10-09T16:29:02.288Z,101695.94
2022-10-09T16:31:36.639Z,101697.40
2022-10-09T16:34:08.156Z,101709.41
2022-10-09T16:36:36.972Z,101710.25
2022-10-09T16:39:06.526Z,101714.64
2022-10-09T16:41:41.863Z,101712.67
2022-10-09T16:44:15.471Z,101711.10
2022-10-09T16:46:44.499Z,101719.89
2022-10-09T16:49:21.360Z,101721.10
2022-10-09T16:51:58.767Z,101723.73
2022-10-09T16:54:32.606Z,101724.11
2022-10-09T16:57:04.886Z,101729.95
2022-10-09T16:59:47.371Z,101728.23
2022-10-09T17:02:16.754Z,101737.14
2022-10-09T17:04:46.529Z,101730.19
2022-10-09T17:07:15.436Z,101739.68
2022-10-09T17:09:45.674Z,101736.95
2022-10-09T17:12:24.779Z,101738.58
2022-10-09T17:15:02.165Z,101747.16
2022-10-09T17:17:39.601Z,101748.47
2022-10-09T17:20:09.300Z,101749.73
2022-10-09T17:22:38.674Z,101757.59
2022-10-09T17:25:16.451Z,101757.02
2022-10-09T17:28:14.337Z,101759.91
2022-10-09T17:30:50.921Z,101758.95
2022-10-09T17:33:21.680Z,101757.86
2022-10-09T17:36:25.404Z,101761.16
2022-10-09T17:39:34.265Z,101758.93
2022-10-09T17:42:28.077Z,101759.66
2022-10-09T17:45:07.811Z,101766.00
2022-10-09T17:47:42.309Z,101766.88
2022-10-09T17:50:15.679Z,101770.01
2022-10-09T17:52:49.595Z,101774.70
2022-10-09T17:55:23.556Z,101777.67
2022-10-09T17:57:55.041Z,101778.99
2022-10-09T18:00:30.129Z,101778.32
2022-10-09T18:02:58.851Z,101781.64
2022-10-09T18:05:27.419Z,101774.05
2022-10-09T18:07:56.864Z,101775.94
2022-10-09T18:10:26.837Z,101777.60
2022-10-09T18:12:58.479Z,101775.66
2022-10-09T18:15:27.063Z,101777.66
2022-10-09T18:17:58.888Z,101781.33
2022-10-09T18:20:35.379Z,101779.91
2022-10-09T18:23:22.701Z,101785.85
2022-10-09T18:25:52.130Z,101788.08
2022-10-09T18:28:21.075Z,101795.78
2022-10-09T18:31:06.095Z,101796.83
2022-10-09T18:33:39.793Z,101804.85
2022-10-09T18:36:32.056Z,101804.79
2022-10-09T18:39:10.021Z,101808.64
2022-10-09T18:41:38.719Z,101807.77
2022-10-09T18:44:15.494Z,101813.87
2022-10-09T18:46:59.802Z,101812.73
2022-10-09T18:49:34.932Z,101822.48
2022-10-09T18:52:04.230Z,101827.91
2022-10-09T18:54:33.158Z,101830.61
2022-10-09T18:57:08.897Z,101830.83
2022-10-09T18:59:39.017Z,101838.07
2022-10-09T19:02:08.084Z,101839.55
2022-10-09T19:04:37.875Z,101843.79
2022-10-09T19:07:08.178Z,101845.33
2022-10-09T19:09:41.481Z,101848.61
2022-10-09T19:12:10.835Z,101849.40
2022-10-09T19:14:39.516Z,101853.83
2022-10-09T19:17:08.371Z,101857.84
2022-10-09T19:19:40.744Z,101863.05
2022-10-09T19:22:14.103Z,101870.52
2022-10-09T19:24:49.549Z,101868.28
2022-10-09T19:27:18.369Z,101869.94
2022-10-09T19:29:46.990Z,101874.30
2022-10-09T19:32:20.283Z,101882.52
2022-10-09T19:34:50.257Z,101877.80
2022-10-09T19:37:18.926Z,101879.02
2022-10-09T19:39:50.083Z,101879.74
2022-10-09T19:42:19.298Z,101885.73
2022-10-09T19:44:47.982Z,101889.94
2022-10-09T19:47:19.190Z,101890.21
2022-10-09T19:49:52.066Z,101893.11
2022-10-09T19:52:21.051Z,101893.73
2022-10-09T19:54:49.683Z,101900.73
2022-10-09T19:57:18.062Z,101909.18
2022-10-09T19:59:48.110Z,101910.67
2022-10-09T20:02:16.566Z,101913.61
2022-10-09T20:04:48.706Z,101915.67
2022-10-09T20:07:17.841Z,101917.48
2022-10-09T20:09:46.317Z,101916.27
2022-10-09T20:12:14.940Z,101911.83
2022-10-09T20:14:43.584Z,101913.69
2022-10-09T20:17:12.427Z,101916.05
2022-10-09T20:19:44.867Z,101914.48
2022-10-09T20:22:14.222Z,101915.23
2022-10-09T20:24:42.820Z,101919.50
2022-10-09T20:27:11.413Z,101919.50
2022-10-09T20:29:39.955Z,101921.91
2022-10-09T20:32:08.829Z,101926.74
2022-10-09T20:34:37.338Z,101925.84
2022-10-09T20:37:05.766Z,101924.42
2022-10-09T20:39:34.378Z,101931.95
2022-10-09T20:42:03.020Z,101924.75
2022-10-09T20:44:31.505Z,101929.98
2022-10-09T20:47:00.137Z,101939.73
2022-10-09T20:49:29.934Z,101941.20
2022-10-09T20:51:58.446Z,101949.09
2022-10-09T20:54:27.314Z,101944.56
2022-10-09T20:56:55.964Z,101947.28
2022-10-09T20:59:24.525Z,101952.34
2022-10-09T21:01:53.180Z,101954.14
2022-10-09T21:04:21.646Z,101953.33
2022-10-09T21:06:50.147Z,101957.45
2022-10-09T21:09:18.625Z,101953.41
2022-10-09T21:11:47.159Z,101953.02
2022-10-09T21:14:15.585Z,101956.55
2022-10-09T21:16:44.154Z,101955.26
2022-10-09T21:19:12.639Z,101953.61
2022-10-09T21:21:41.191Z,101951.52
2022-10-09T21:24:09.777Z,101954.45
2022-10-09T21:26:39.490Z,101954.11
2022-10-09T21:29:07.954Z,101957.36
2022-10-09T21:31:36.639Z,101961.35
2022-10-09T21:34:05.261Z,101969.46
2022-10-09T21:39:46.186Z,101976.59
2022-10-09T21:42:14.849Z,101977.39
2022-10-09T21:44:43.384Z,101978.69
2022-10-09T21:47:21.223Z,101979.82
2022-10-09T21:49:49.717Z,101983.25
2022-10-09T21:52:18.873Z,101987.05
2022-10-09T21:54:47.343Z,101991.21
2022-10-09T21:57:15.885Z,101996.27
2022-10-09T21:59:44.390Z,101997.39
2022-10-09T22:02:12.909Z,101995.95
2022-10-09T22:04:41.283Z,102001.14
2022-10-09T22:07:09.788Z,101999.75
2022-10-09T22:09:38.252Z,102002.86
2022-10-09T22:12:06.684Z,102002.19
2022-10-09T22:14:35.147Z,101998.46
2022-10-09T22:17:03.577Z,102000.45
2022-10-09T22:19:32.337Z,102004.02
2022-10-09T22:22:00.784Z,102007.97
2022-10-09T22:24:30.807Z,102010.85
2022-10-09T22:26:59.648Z,102013.73
2022-10-09T22:29:28.043Z,102016.98
2022-10-09T22:31:56.576Z,102019.20
2022-10-09T22:34:25.071Z,102019.39
2022-10-09T22:36:53.472Z,102024.05
2022-10-09T22:39:21.996Z,102029.77
2022-10-09T22:41:50.456Z,102031.23
2022-10-09T22:44:18.964Z,102033.91
2022-10-09T22:46:50.102Z,102037.38
2022-10-09T22:49:18.865Z,102041.01
2022-10-09T22:51:47.334Z,102044.29
2022-10-09T22:54:15.803Z,102044.88
2022-10-09T22:56:46.047Z,102048.66
2022-10-09T22:59:18.238Z,102044.77
2022-10-09T23:01:57.578Z,102045.83
2022-10-09T23:04:26.404Z,102047.64
2022-10-09T23:06:59.879Z,102046.23
2022-10-09T23:09:32.429Z,102046.07
2022-10-09T23:12:00.844Z,102042.34
2022-10-09T23:14:29.490Z,102042.16
2022-10-09T23:16:58.008Z,102041.45
2022-10-09T23:19:26.579Z,102040.58
2022-10-09T23:21:55.156Z,102045.38
2022-10-09T23:24:23.664Z,102054.29
2022-10-09T23:26:52.424Z,102054.48
2022-10-09T23:29:21.500Z,102054.88
2022-10-09T23:31:53.461Z,102058.10
2022-10-09T23:34:22.062Z,102058.46
2022-10-09T23:36:50.708Z,102061.70
2022-10-09T23:39:19.340Z,102064.94
2022-10-09T23:41:47.703Z,102068.35
2022-10-09T23:44:21.246Z,102071.02
2022-10-09T23:46:50.655Z,102068.89
2022-10-09T23:49:19.257Z,102074.44
2022-10-09T23:51:47.977Z,102074.96
2022-10-09T23:54:16.504Z,102072.14
2022-10-09T23:56:45.077Z,102073.93
2022-10-09T23:59:13.692Z,102076.98
